Hastings, Minnesota
Current Conditions -  °F | °C
As of 7:10 PM on Sunday 23 Nov 2014 (Local Time) from KSGS Reporting Station
Overcast Overcast  
Wind Chill: 35°   Ceiling: 3800
Heat Index: 40°   Visibility: 10mi
Dew Point: 37°   Wind: 7mph
Humidity: 88%   Direction: 320°NW
Pressure: 29.37"   Gusts: NA
Location:  44.74°N, 92.85°W
Report Text: KSGS 240110Z AUTO 32006KT 10SM SCT012 OVC038 04/03 A2937 RMK AO2 T00430025
Loading
Personal Weather Stations






























Interactive Weather Map New forecast layout! Learn more

10-Day Weather Forecast

Advertisements
Track Severe Weather on mobile